sensor_id;sensor_type;location;lat;lon;timestamp;pressure;altitude;pressure_sealevel;temperature;humidity
74474;BME280;62922;-6.168;106.796;2023-05-23T00:34:58;101272.03;;;31.09;64.90
74474;BME280;62922;-6.168;106.796;2023-05-23T00:37:24;101274.00;;;31.08;64.60
74474;BME280;62922;-6.168;106.796;2023-05-23T00:39:51;101276.81;;;31.08;64.67
74474;BME280;62922;-6.168;106.796;2023-05-23T00:42:16;101274.84;;;31.09;64.42
74474;BME280;62922;-6.168;106.796;2023-05-23T00:44:42;101283.31;;;31.09;64.42
74474;BME280;62922;-6.168;106.796;2023-05-23T00:47:10;101289.78;;;31.09;64.49
74474;BME280;62922;-6.168;106.796;2023-05-23T00:49:38;101292.94;;;31.08;64.29
74474;BME280;62922;-6.168;106.796;2023-05-23T00:52:04;101290.09;;;31.08;64.73
74474;BME280;62922;-6.168;106.796;2023-05-23T00:54:30;101284.47;;;31.08;64.53
74474;BME280;62922;-6.168;106.796;2023-05-23T00:56:56;101293.75;;;31.08;64.63
74474;BME280;62922;-6.168;106.796;2023-05-23T00:59:22;101294.59;;;31.09;64.28
74474;BME280;62922;-6.168;106.796;2023-05-23T01:01:49;101291.75;;;31.09;64.40
74474;BME280;62922;-6.168;106.796;2023-05-23T01:04:15;101290.91;;;31.08;64.39
74474;BME280;62922;-6.168;106.796;2023-05-23T01:06:42;101303.88;;;31.09;64.56
74474;BME280;62922;-6.168;106.796;2023-05-23T01:09:12;101294.91;;;31.07;64.42
74474;BME280;62922;-6.168;106.796;2023-05-23T01:11:42;101303.03;;;31.09;64.19
74474;BME280;62922;-6.168;106.796;2023-05-23T01:14:10;101301.06;;;31.09;64.09
74474;BME280;62922;-6.168;106.796;2023-05-23T01:16:41;101304.22;;;31.08;64.54
74474;BME280;62922;-6.168;106.796;2023-05-23T01:21:41;101301.38;;;31.08;64.39
74474;BME280;62922;-6.168;106.796;2023-05-23T01:26:40;101298.56;;;31.08;64.55
74474;BME280;62922;-6.168;106.796;2023-05-23T01:29:07;101290.09;;;31.08;64.24
74474;BME280;62922;-6.168;106.796;2023-05-23T01:31:36;101292.09;;;31.07;64.61
74474;BME280;62922;-6.168;106.796;2023-05-23T01:34:04;101287.28;;;31.08;64.63
74474;BME280;62922;-6.168;106.796;2023-05-23T01:36:31;101288.94;;;31.09;64.45
74474;BME280;62922;-6.168;106.796;2023-05-23T01:39:00;101285.28;;;31.08;64.57
74474;BME280;62922;-6.168;106.796;2023-05-23T01:41:26;101285.28;;;31.08;64.52
74474;BME280;62922;-6.168;106.796;2023-05-23T01:43:53;101285.28;;;31.08;64.18
74474;BME280;62922;-6.168;106.796;2023-05-23T01:46:19;101280.47;;;31.09;64.48
74474;BME280;62922;-6.168;106.796;2023-05-23T01:48:46;101281.31;;;31.09;64.55
74474;BME280;62922;-6.168;106.796;2023-05-23T01:51:12;101278.50;;;31.09;64.79
74474;BME280;62922;-6.168;106.796;2023-05-23T01:53:39;101273.69;;;31.10;64.58
74474;BME280;62922;-6.168;106.796;2023-05-23T01:56:05;101264.41;;;31.09;64.70
74474;BME280;62922;-6.168;106.796;2023-05-23T01:58:31;101261.25;;;31.11;64.67
74474;BME280;62922;-6.168;106.796;2023-05-23T02:00:57;101268.88;;;31.10;64.80
74474;BME280;62922;-6.168;106.796;2023-05-23T02:03:23;101264.91;;;31.11;64.72
74474;BME280;62922;-6.168;106.796;2023-05-23T02:05:49;101268.25;;;31.13;64.55
74474;BME280;62922;-6.168;106.796;2023-05-23T02:08:15;101266.56;;;31.12;64.77
74474;BME280;62922;-6.168;106.796;2023-05-23T02:10:40;101269.38;;;31.12;64.58
74474;BME280;62922;-6.168;106.796;2023-05-23T02:13:06;101268.56;;;31.12;64.60
74474;BME280;62922;-6.168;106.796;2023-05-23T02:15:32;101267.41;;;31.13;64.27
74474;BME280;62922;-6.168;106.796;2023-05-23T02:17:58;101268.25;;;31.13;64.30
74474;BME280;62922;-6.168;106.796;2023-05-23T02:20:26;101274.69;;;31.14;64.66
74474;BME280;62922;-6.168;106.796;2023-05-23T02:22:55;101274.69;;;31.14;64.83
74474;BME280;62922;-6.168;106.796;2023-05-23T02:25:23;101282.81;;;31.15;64.67
74474;BME280;62922;-6.168;106.796;2023-05-23T02:27:49;101287.00;;;31.18;65.01
74474;BME280;62922;-6.168;106.796;2023-05-23T02:30:15;101279.06;;;31.20;65.15
74474;BME280;62922;-6.168;106.796;2023-05-23T02:32:41;101288.19;;;31.25;65.47
74474;BME280;62922;-6.168;106.796;2023-05-23T02:35:07;101290.88;;;31.30;65.34
74474;BME280;62922;-6.168;106.796;2023-05-23T02:37:34;101285.41;;;31.34;65.84
74474;BME280;62922;-6.168;106.796;2023-05-23T02:40:02;101290.97;;;31.39;66.21
74474;BME280;62922;-6.168;106.796;2023-05-23T02:42:30;101290.81;;;31.44;66.97
74474;BME280;62922;-6.168;106.796;2023-05-23T02:44:56;101291.19;;;31.51;68.73
74474;BME280;62922;-6.168;106.796;2023-05-23T02:47:22;101279.41;;;31.57;69.26
74474;BME280;62922;-6.168;106.796;2023-05-23T02:49:48;101280.09;;;31.63;69.86
74474;BME280;62922;-6.168;106.796;2023-05-23T02:52:14;101276.13;;;31.64;70.40
74474;BME280;62922;-6.168;106.796;2023-05-23T02:54:40;101277.59;;;31.61;69.47
74474;BME280;62922;-6.168;106.796;2023-05-23T02:57:06;101276.28;;;31.59;69.46
74474;BME280;62922;-6.168;106.796;2023-05-23T02:59:32;101279.41;;;31.57;68.96
74474;BME280;62922;-6.168;106.796;2023-05-23T03:01:58;101262.81;;;31.56;69.16
74474;BME280;62922;-6.168;106.796;2023-05-23T03:04:24;101274.09;;;31.56;68.61
74474;BME280;62922;-6.168;106.796;2023-05-23T03:06:50;101273.91;;;31.52;68.56
74474;BME280;62922;-6.168;106.796;2023-05-23T03:09:21;101267.44;;;31.52;68.02
74474;BME280;62922;-6.168;106.796;2023-05-23T03:11:47;101269.44;;;31.51;67.75
74474;BME280;62922;-6.168;106.796;2023-05-23T03:14:13;101262.97;;;31.51;66.89
74474;BME280;62922;-6.168;106.796;2023-05-23T03:16:39;101263.81;;;31.51;67.31
74474;BME280;62922;-6.168;106.796;2023-05-23T03:19:05;101258.97;;;31.52;67.00
74474;BME280;62922;-6.168;106.796;2023-05-23T03:21:31;101264.31;;;31.53;67.29
74474;BME280;62922;-6.168;106.796;2023-05-23T03:23:57;101259.47;;;31.54;67.62
74474;BME280;62922;-6.168;106.796;2023-05-23T11:36:13;101067.47;;;32.74;57.84
74474;BME280;62922;-6.168;106.796;2023-05-23T11:38:39;101073.13;;;32.74;58.45
74474;BME280;62922;-6.168;106.796;2023-05-23T11:41:05;101074.31;;;32.73;58.38
74474;BME280;62922;-6.168;106.796;2023-05-23T11:43:31;101075.09;;;32.73;57.88
74474;BME280;62922;-6.168;106.796;2023-05-23T11:45:57;101080.28;;;32.71;58.48
74474;BME280;62922;-6.168;106.796;2023-05-23T11:48:32;101085.91;;;32.71;57.98
74474;BME280;62922;-6.168;106.796;2023-05-23T11:50:57;101090.78;;;32.71;58.29
74474;BME280;62922;-6.168;106.796;2023-05-23T11:53:25;101090.78;;;32.71;58.71
74474;BME280;62922;-6.168;106.796;2023-05-23T11:55:53;101096.41;;;32.71;58.20
74474;BME280;62922;-6.168;106.796;2023-05-23T11:58:22;101094.75;;;32.70;58.80
74474;BME280;62922;-6.168;106.796;2023-05-23T12:00:50;101101.22;;;32.70;58.34
74474;BME280;62922;-6.168;106.796;2023-05-23T12:03:16;101104.06;;;32.70;58.46
74474;BME280;62922;-6.168;106.796;2023-05-23T12:05:43;101104.06;;;32.70;59.06
74474;BME280;62922;-6.168;106.796;2023-05-23T12:08:11;101111.69;;;32.70;58.41
74474;BME280;62922;-6.168;106.796;2023-05-23T12:10:47;101113.69;;;32.69;58.50
74474;BME280;62922;-6.168;106.796;2023-05-23T12:13:13;101112.03;;;32.68;58.53
74474;BME280;62922;-6.168;106.796;2023-05-23T12:15:39;101104.75;;;32.67;58.95
74474;BME280;62922;-6.168;106.796;2023-05-23T12:18:05;101107.88;;;32.66;58.69
74474;BME280;62922;-6.168;106.796;2023-05-23T12:20:31;101110.41;;;32.67;58.54
74474;BME280;62922;-6.168;106.796;2023-05-23T12:23:03;101111.56;;;32.66;58.54
74474;BME280;62922;-6.168;106.796;2023-05-23T12:25:28;101111.56;;;32.66;59.03
74474;BME280;62922;-6.168;106.796;2023-05-23T12:27:55;101118.38;;;32.65;59.22
74474;BME280;62922;-6.168;106.796;2023-05-23T12:30:21;101124.84;;;32.66;59.29
74474;BME280;62922;-6.168;106.796;2023-05-23T12:32:47;101127.66;;;32.66;58.84
74474;BME280;62922;-6.168;106.796;2023-05-23T12:35:13;101125.19;;;32.64;58.91
74474;BME280;62922;-6.168;106.796;2023-05-23T12:37:43;101127.16;;;32.64;58.85
74474;BME280;62922;-6.168;106.796;2023-05-23T12:40:11;101130.84;;;32.64;58.84
74474;BME280;62922;-6.168;106.796;2023-05-23T12:47:49;101132.34;;;32.62;59.00
74474;BME280;62922;-6.168;106.796;2023-05-23T12:50:15;101143.66;;;32.62;59.28
74474;BME280;62922;-6.168;106.796;2023-05-23T12:52:41;101143.97;;;32.60;59.03
74474;BME280;62922;-6.168;106.796;2023-05-23T12:55:07;101142.34;;;32.59;59.00
74474;BME280;62922;-6.168;106.796;2023-05-23T12:57:35;101139.50;;;32.59;59.54
74474;BME280;62922;-6.168;106.796;2023-05-23T13:00:02;101141.50;;;32.58;59.49
74474;BME280;62922;-6.168;106.796;2023-05-23T13:02:29;101139.84;;;32.58;59.04
74474;BME280;62922;-6.168;106.796;2023-05-23T13:04:54;101144.66;;;32.57;59.03
74474;BME280;62922;-6.168;106.796;2023-05-23T13:07:21;101153.47;;;32.55;59.58
74474;BME280;62922;-6.168;106.796;2023-05-23T13:09:47;101147.81;;;32.55;59.50
74474;BME280;62922;-6.168;106.796;2023-05-23T13:12:13;101151.00;;;32.54;59.04
74474;BME280;62922;-6.168;106.796;2023-05-23T13:14:40;101151.31;;;32.52;59.22
74474;BME280;62922;-6.168;106.796;2023-05-23T13:17:05;101156.97;;;32.52;58.84
74474;BME280;62922;-6.168;106.796;2023-05-23T13:19:32;101146.84;;;32.51;59.09
74474;BME280;62922;-6.168;106.796;2023-05-23T13:21:57;101145.66;;;32.52;59.22
74474;BME280;62922;-6.168;106.796;2023-05-23T13:24:24;101161.47;;;32.53;59.96
74474;BME280;62922;-6.168;106.796;2023-05-23T13:26:50;101152.16;;;32.53;59.32
74474;BME280;62922;-6.168;106.796;2023-05-23T13:29:16;101159.78;;;32.52;59.27
74474;BME280;62922;-6.168;106.796;2023-05-23T13:31:42;101157.78;;;32.53;59.32
74474;BME280;62922;-6.168;106.796;2023-05-23T13:34:08;101159.78;;;32.52;59.68
74474;BME280;62922;-6.168;106.796;2023-05-23T13:36:34;101159.31;;;32.50;59.65
74474;BME280;62922;-6.168;106.796;2023-05-23T13:39:00;101160.97;;;32.51;59.13
74474;BME280;62922;-6.168;106.796;2023-05-23T13:41:26;101161.31;;;32.50;59.41
74474;BME280;62922;-6.168;106.796;2023-05-23T13:43:52;101168.94;;;32.49;59.11
74474;BME280;62922;-6.168;106.796;2023-05-23T13:46:18;101168.94;;;32.49;59.16
74474;BME280;62922;-6.168;106.796;2023-05-23T13:48:44;101172.09;;;32.48;59.30
74474;BME280;62922;-6.168;106.796;2023-05-23T13:51:10;101184.59;;;32.47;59.08
74474;BME280;62922;-6.168;106.796;2023-05-23T13:53:36;101178.44;;;32.45;59.24
74474;BME280;62922;-6.168;106.796;2023-05-23T13:56:02;101181.56;;;32.43;59.66
74474;BME280;62922;-6.168;106.796;2023-05-23T13:58:28;101175.13;;;32.43;59.56
74474;BME280;62922;-6.168;106.796;2023-05-23T14:00:54;101191.22;;;32.42;59.13
74474;BME280;62922;-6.168;106.796;2023-05-23T14:03:22;101185.88;;;32.41;59.05
74474;BME280;62922;-6.168;106.796;2023-05-23T14:05:49;101192.69;;;32.40;58.91
74474;BME280;62922;-6.168;106.796;2023-05-23T14:08:15;101197.19;;;32.41;59.32
74474;BME280;62922;-6.168;106.796;2023-05-23T14:10:41;101193.53;;;32.40;59.44
74474;BME280;62922;-6.168;106.796;2023-05-23T14:13:07;101197.53;;;32.39;59.75
74474;BME280;62922;-6.168;106.796;2023-05-23T14:15:36;101199.50;;;32.39;59.71
74474;BME280;62922;-6.168;106.796;2023-05-23T14:18:02;101206.00;;;32.39;59.08
74474;BME280;62922;-6.168;106.796;2023-05-23T14:20:28;101204.31;;;32.38;59.31
74474;BME280;62922;-6.168;106.796;2023-05-23T14:22:57;101207.97;;;32.39;59.76
74474;BME280;62922;-6.168;106.796;2023-05-23T14:25:23;101205.16;;;32.39;59.25
74474;BME280;62922;-6.168;106.796;2023-05-23T14:27:49;101212.78;;;32.38;59.90
74474;BME280;62922;-6.168;106.796;2023-05-23T14:30:15;101209.13;;;32.38;59.91
74474;BME280;62922;-6.168;106.796;2023-05-23T14:32:41;101215.63;;;32.38;59.53
74474;BME280;62922;-6.168;106.796;2023-05-23T14:35:08;101208.31;;;32.37;60.09
74474;BME280;62922;-6.168;106.796;2023-05-23T14:37:36;101212.28;;;32.36;59.99
74474;BME280;62922;-6.168;106.796;2023-05-23T14:40:05;101217.94;;;32.36;59.85
74474;BME280;62922;-6.168;106.796;2023-05-23T14:42:31;101213.47;;;32.35;60.01
74474;BME280;62922;-6.168;106.796;2023-05-23T14:44:57;101215.47;;;32.35;59.85
74474;BME280;62922;-6.168;106.796;2023-05-23T14:47:23;101220.78;;;32.36;59.69
74474;BME280;62922;-6.168;106.796;2023-05-23T14:49:49;101224.78;;;32.35;60.40
74474;BME280;62922;-6.168;106.796;2023-05-23T14:52:15;101223.09;;;32.34;60.31
74474;BME280;62922;-6.168;106.796;2023-05-23T14:54:41;101220.28;;;32.34;59.82
74474;BME280;62922;-6.168;106.796;2023-05-23T14:57:09;101226.75;;;32.35;59.99
74474;BME280;62922;-6.168;106.796;2023-05-23T14:59:35;101231.06;;;32.32;60.10
74474;BME280;62922;-6.168;106.796;2023-05-23T15:02:03;101233.59;;;32.34;60.55
74474;BME280;62922;-6.168;106.796;2023-05-23T15:04:30;101248.00;;;32.32;60.58
74474;BME280;62922;-6.168;106.796;2023-05-23T15:06:59;101240.38;;;32.33;60.11
74474;BME280;62922;-6.168;106.796;2023-05-23T15:09:25;101248.00;;;32.32;60.74
74474;BME280;62922;-6.168;106.796;2023-05-23T15:11:51;101250.03;;;32.32;60.25
74474;BME280;62922;-6.168;106.796;2023-05-23T15:14:17;101257.31;;;32.33;60.25
74474;BME280;62922;-6.168;106.796;2023-05-23T15:16:43;101241.56;;;32.32;60.27
74474;BME280;62922;-6.168;106.796;2023-05-23T15:19:09;101243.53;;;32.31;60.40
74474;BME280;62922;-6.168;106.796;2023-05-23T15:21:35;101249.19;;;32.31;60.20
74474;BME280;62922;-6.168;106.796;2023-05-23T15:24:01;101248.34;;;32.31;60.12
74474;BME280;62922;-6.168;106.796;2023-05-23T15:26:28;101250.38;;;32.30;60.85
74474;BME280;62922;-6.168;106.796;2023-05-23T15:28:54;101265.63;;;32.29;60.72
74474;BME280;62922;-6.168;106.796;2023-05-23T15:31:20;101260.81;;;32.30;60.72
74474;BME280;62922;-6.168;106.796;2023-05-23T15:33:46;101250.66;;;32.29;60.96
74474;BME280;62922;-6.168;106.796;2023-05-23T15:36:12;101254.34;;;32.29;60.76
74474;BME280;62922;-6.168;106.796;2023-05-23T15:38:38;101253.50;;;32.29;61.00
74474;BME280;62922;-6.168;106.796;2023-05-23T15:41:04;101255.50;;;32.28;61.02
74474;BME280;62922;-6.168;106.796;2023-05-23T15:43:31;101255.81;;;32.27;61.00
74474;BME280;62922;-6.168;106.796;2023-05-23T15:45:57;101250.16;;;32.27;60.51
74474;BME280;62922;-6.168;106.796;2023-05-23T15:48:23;101258.66;;;32.27;60.84
74474;BME280;62922;-6.168;106.796;2023-05-23T15:50:49;101249.38;;;32.26;60.63
74474;BME280;62922;-6.168;106.796;2023-05-23T15:53:15;101252.19;;;32.26;60.58
74474;BME280;62922;-6.168;106.796;2023-05-23T15:55:40;101253.34;;;32.25;60.76
74474;BME280;62922;-6.168;106.796;2023-05-23T15:58:06;101249.69;;;32.25;61.16
74474;BME280;62922;-6.168;106.796;2023-05-23T16:00:33;101252.03;;;32.23;60.73
74474;BME280;62922;-6.168;106.796;2023-05-23T16:02:59;101248.34;;;32.22;60.79
74474;BME280;62922;-6.168;106.796;2023-05-23T16:05:25;101245.53;;;32.22;60.86
74474;BME280;62922;-6.168;106.796;2023-05-23T16:07:51;101247.19;;;32.23;60.65
74474;BME280;62922;-6.168;106.796;2023-05-23T16:10:17;101243.03;;;32.21;61.02
74474;BME280;62922;-6.168;106.796;2023-05-23T16:12:44;101251.53;;;32.21;61.13
74474;BME280;62922;-6.168;106.796;2023-05-23T16:15:10;101253.50;;;32.20;61.17
74474;BME280;62922;-6.168;106.796;2023-05-23T16:17:36;101245.03;;;32.20;61.22
74474;BME280;62922;-6.168;106.796;2023-05-23T16:20:02;101245.38;;;32.19;60.87
74474;BME280;62922;-6.168;106.796;2023-05-23T16:22:28;101240.88;;;32.18;61.13
74474;BME280;62922;-6.168;106.796;2023-05-23T16:24:55;101237.25;;;32.17;60.93
74474;BME280;62922;-6.168;106.796;2023-05-23T16:27:22;101245.72;;;32.17;61.03
74474;BME280;62922;-6.168;106.796;2023-05-23T16:29:47;101242.03;;;32.17;60.59
74474;BME280;62922;-6.168;106.796;2023-05-23T16:32:13;101235.56;;;32.16;60.58
74474;BME280;62922;-6.168;106.796;2023-05-23T16:34:41;101236.72;;;32.15;60.64
74474;BME280;62922;-6.168;106.796;2023-05-23T16:37:08;101241.53;;;32.15;60.73
74474;BME280;62922;-6.168;106.796;2023-05-23T16:39:34;101241.88;;;32.13;61.16
74474;BME280;62922;-6.168;106.796;2023-05-23T16:42:00;101240.19;;;32.12;61.29
74474;BME280;62922;-6.168;106.796;2023-05-23T16:44:26;101240.19;;;32.12;61.16
74474;BME280;62922;-6.168;106.796;2023-05-23T16:46:52;101241.38;;;32.11;60.81
74474;BME280;62922;-6.168;106.796;2023-05-23T16:49:18;101238.56;;;32.11;60.86
74474;BME280;62922;-6.168;106.796;2023-05-23T16:51:44;101248.19;;;32.10;61.08
74474;BME280;62922;-6.168;106.796;2023-05-23T16:54:10;101237.22;;;32.09;60.62
74474;BME280;62922;-6.168;106.796;2023-05-23T16:56:36;101227.94;;;32.08;60.75
74474;BME280;62922;-6.168;106.796;2023-05-23T16:59:03;101230.75;;;32.08;60.74
74474;BME280;62922;-6.168;106.796;2023-05-23T17:01:29;101229.91;;;32.08;61.41
74474;BME280;62922;-6.168;106.796;2023-05-23T17:03:55;101235.91;;;32.06;61.39
74474;BME280;62922;-6.168;106.796;2023-05-23T17:06:23;101229.41;;;32.06;61.39
74474;BME280;62922;-6.168;106.796;2023-05-23T17:08:49;101234.22;;;32.05;61.02
74474;BME280;62922;-6.168;106.796;2023-05-23T17:11:15;101229.41;;;32.06;61.39
74474;BME280;62922;-6.168;106.796;2023-05-23T17:13:41;101226.94;;;32.04;60.72
74474;BME280;62922;-6.168;106.796;2023-05-23T17:16:07;101232.56;;;32.04;60.74
74474;BME280;62922;-6.168;106.796;2023-05-23T17:18:33;101225.25;;;32.03;61.27
74474;BME280;62922;-6.168;106.796;2023-05-23T17:20:59;101224.44;;;32.03;61.31
74474;BME280;62922;-6.168;106.796;2023-05-23T17:23:25;101230.09;;;32.03;60.68
74474;BME280;62922;-6.168;106.796;2023-05-23T17:25:51;101228.41;;;32.02;60.84
74474;BME280;62922;-6.168;106.796;2023-05-23T17:28:20;101221.13;;;32.01;61.00
74474;BME280;62922;-6.168;106.796;2023-05-23T17:30:45;101222.25;;;32.00;61.23
74474;BME280;62922;-6.168;106.796;2023-05-23T23:11:03;101221.19;;;31.22;61.93
74474;BME280;62922;-6.168;106.796;2023-05-23T23:13:29;101226.00;;;31.22;62.09
74474;BME280;62922;-6.168;106.796;2023-05-23T23:15:55;101230.47;;;31.23;62.00
74474;BME280;62922;-6.168;106.796;2023-05-23T23:18:23;101215.56;;;31.22;61.73
74474;BME280;62922;-6.168;106.796;2023-05-23T23:20:49;101211.91;;;31.22;61.99
74474;BME280;62922;-6.168;106.796;2023-05-23T23:23:15;101218.66;;;31.21;61.93
74474;BME280;62922;-6.168;106.796;2023-05-23T23:25:41;101219.50;;;31.21;61.99
74474;BME280;62922;-6.168;106.796;2023-05-23T23:28:09;101221.50;;;31.21;61.66
74474;BME280;62922;-6.168;106.796;2023-05-23T23:30:35;101228.81;;;31.22;61.75
74474;BME280;62922;-6.168;106.796;2023-05-23T23:33:01;101231.97;;;31.20;62.02
74474;BME280;62922;-6.168;106.796;2023-05-23T23:35:27;101234.78;;;31.20;61.78
74474;BME280;62922;-6.168;106.796;2023-05-23T23:37:52;101237.91;;;31.19;62.17
74474;BME280;62922;-6.168;106.796;2023-05-23T23:40:18;101239.56;;;31.20;61.72
74474;BME280;62922;-6.168;106.796;2023-05-23T23:42:44;101246.06;;;31.20;61.80
74474;BME280;62922;-6.168;106.796;2023-05-23T23:45:10;101251.69;;;31.20;62.34
74474;BME280;62922;-6.168;106.796;2023-05-23T23:47:36;101260.97;;;31.21;62.23
74474;BME280;62922;-6.168;106.796;2023-05-23T23:50:02;101260.16;;;31.20;62.01
74474;BME280;62922;-6.168;106.796;2023-05-23T23:52:28;101272.25;;;31.21;62.13
74474;BME280;62922;-6.168;106.796;2023-05-23T23:54:56;101271.44;;;31.20;62.31
74474;BME280;62922;-6.168;106.796;2023-05-23T23:57:22;101270.59;;;31.20;61.99
74474;BME280;62922;-6.168;106.796;2023-05-23T23:59:48;101276.22;;;31.20;61.82
